sensor_id;sensor_type;location;lat;lon;timestamp;temperature;humidity
12254;DHT22;6189;52.526;13.390;2022-10-15T00:00:40;14.60;99.90
12254;DHT22;6189;52.526;13.390;2022-10-15T00:03:26;14.60;99.90
12254;DHT22;6189;52.526;13.390;2022-10-15T00:06:13;14.50;99.90
12254;DHT22;6189;52.526;13.390;2022-10-15T00:08:59;14.60;99.90
12254;DHT22;6189;52.526;13.390;2022-10-15T00:11:44;14.60;99.90
12254;DHT22;6189;52.526;13.390;2022-10-15T00:14:30;14.60;99.90
12254;DHT22;6189;52.526;13.390;2022-10-15T00:17:16;14.50;99.90
12254;DHT22;6189;52.526;13.390;2022-10-15T00:20:03;14.50;99.90
12254;DHT22;6189;52.526;13.390;2022-10-15T00:22:49;14.50;99.90
12254;DHT22;6189;52.526;13.390;2022-10-15T00:25:34;14.50;99.90
12254;DHT22;6189;52.526;13.390;2022-10-15T00:28:21;14.50;99.90
12254;DHT22;6189;52.526;13.390;2022-10-15T00:31:09;14.50;99.90
12254;DHT22;6189;52.526;13.390;2022-10-15T00:33:57;14.50;99.90
12254;DHT22;6189;52.526;13.390;2022-10-15T00:36:43;14.50;99.90
12254;DHT22;6189;52.526;13.390;2022-10-15T00:39:29;14.50;99.90
12254;DHT22;6189;52.526;13.390;2022-10-15T00:42:15;14.50;99.90
12254;DHT22;6189;52.526;13.390;2022-10-15T00:45:00;14.40;99.90
12254;DHT22;6189;52.526;13.390;2022-10-15T00:47:47;14.40;99.90
12254;DHT22;6189;52.526;13.390;2022-10-15T00:50:34;14.50;99.90
12254;DHT22;6189;52.526;13.390;2022-10-15T00:53:20;14.40;99.90
12254;DHT22;6189;52.526;13.390;2022-10-15T00:56:06;14.40;99.90
12254;DHT22;6189;52.526;13.390;2022-10-15T00:58:53;14.40;99.90
12254;DHT22;6189;52.526;13.390;2022-10-15T01:01:40;14.30;99.90
12254;DHT22;6189;52.526;13.390;2022-10-15T01:04:26;14.30;99.90
12254;DHT22;6189;52.526;13.390;2022-10-15T01:07:13;14.40;99.90
12254;DHT22;6189;52.526;13.390;2022-10-15T01:10:00;14.40;99.90
12254;DHT22;6189;52.526;13.390;2022-10-15T01:12:57;14.50;99.90
12254;DHT22;6189;52.526;13.390;2022-10-15T01:15:50;14.50;99.90
12254;DHT22;6189;52.526;13.390;2022-10-15T01:18:41;14.50;99.90
12254;DHT22;6189;52.526;13.390;2022-10-15T01:21:32;14.60;99.90
12254;DHT22;6189;52.526;13.390;2022-10-15T01:24:49;14.50;99.90
12254;DHT22;6189;52.526;13.390;2022-10-15T01:27:41;14.50;99.90
12254;DHT22;6189;52.526;13.390;2022-10-15T01:30:33;14.40;99.90
12254;DHT22;6189;52.526;13.390;2022-10-15T01:33:31;14.40;99.90
12254;DHT22;6189;52.526;13.390;2022-10-15T01:36:26;14.40;99.90
12254;DHT22;6189;52.526;13.390;2022-10-15T01:39:19;14.30;99.90
12254;DHT22;6189;52.526;13.390;2022-10-15T01:42:12;14.30;99.90
12254;DHT22;6189;52.526;13.390;2022-10-15T01:45:04;14.30;99.90
12254;DHT22;6189;52.526;13.390;2022-10-15T01:47:54;14.30;99.90
12254;DHT22;6189;52.526;13.390;2022-10-15T01:50:43;14.30;99.90
12254;DHT22;6189;52.526;13.390;2022-10-15T01:53:32;14.30;99.90
12254;DHT22;6189;52.526;13.390;2022-10-15T01:56:20;14.30;99.90
12254;DHT22;6189;52.526;13.390;2022-10-15T01:59:08;14.20;99.90
12254;DHT22;6189;52.526;13.390;2022-10-15T02:01:54;14.30;99.90
12254;DHT22;6189;52.526;13.390;2022-10-15T02:04:42;14.20;99.90
12254;DHT22;6189;52.526;13.390;2022-10-15T02:07:38;14.20;99.90
12254;DHT22;6189;52.526;13.390;2022-10-15T02:10:29;14.30;99.90
12254;DHT22;6189;52.526;13.390;2022-10-15T02:13:23;14.30;99.90
12254;DHT22;6189;52.526;13.390;2022-10-15T02:16:12;14.20;99.90
12254;DHT22;6189;52.526;13.390;2022-10-15T02:19:05;14.20;99.90
12254;DHT22;6189;52.526;13.390;2022-10-15T02:22:00;14.30;99.90
12254;DHT22;6189;52.526;13.390;2022-10-15T02:24:50;14.30;99.90
12254;DHT22;6189;52.526;13.390;2022-10-15T02:27:38;14.30;99.90
12254;DHT22;6189;52.526;13.390;2022-10-15T02:30:25;14.20;99.90
12254;DHT22;6189;52.526;13.390;2022-10-15T02:33:13;14.20;99.90
12254;DHT22;6189;52.526;13.390;2022-10-15T02:36:00;14.20;99.90
12254;DHT22;6189;52.526;13.390;2022-10-15T02:38:48;14.20;99.90
12254;DHT22;6189;52.526;13.390;2022-10-15T02:41:35;14.20;99.90
12254;DHT22;6189;52.526;13.390;2022-10-15T02:44:21;14.20;99.90
12254;DHT22;6189;52.526;13.390;2022-10-15T02:47:06;14.20;99.90
12254;DHT22;6189;52.526;13.390;2022-10-15T02:49:51;14.30;99.90
12254;DHT22;6189;52.526;13.390;2022-10-15T02:52:37;14.30;99.90
12254;DHT22;6189;52.526;13.390;2022-10-15T02:55:24;14.20;99.90
12254;DHT22;6189;52.526;13.390;2022-10-15T02:58:09;14.30;99.90
12254;DHT22;6189;52.526;13.390;2022-10-15T03:00:54;14.20;99.90
12254;DHT22;6189;52.526;13.390;2022-10-15T03:03:40;14.30;99.90
12254;DHT22;6189;52.526;13.390;2022-10-15T03:06:25;14.30;99.90
12254;DHT22;6189;52.526;13.390;2022-10-15T03:09:11;14.30;99.90
12254;DHT22;6189;52.526;13.390;2022-10-15T03:11:58;14.30;99.90
12254;DHT22;6189;52.526;13.390;2022-10-15T03:14:43;14.30;99.90
12254;DHT22;6189;52.526;13.390;2022-10-15T03:17:29;14.20;99.90
12254;DHT22;6189;52.526;13.390;2022-10-15T03:20:14;14.30;99.90
12254;DHT22;6189;52.526;13.390;2022-10-15T03:22:59;14.30;99.90
12254;DHT22;6189;52.526;13.390;2022-10-15T03:25:45;14.30;99.90
12254;DHT22;6189;52.526;13.390;2022-10-15T03:28:32;14.20;99.90
12254;DHT22;6189;52.526;13.390;2022-10-15T03:31:18;14.20;99.90
12254;DHT22;6189;52.526;13.390;2022-10-15T03:34:04;14.20;99.90
12254;DHT22;6189;52.526;13.390;2022-10-15T03:36:49;14.20;99.90
12254;DHT22;6189;52.526;13.390;2022-10-15T03:39:35;14.20;99.90
12254;DHT22;6189;52.526;13.390;2022-10-15T03:42:21;14.20;99.90
12254;DHT22;6189;52.526;13.390;2022-10-15T03:45:09;14.20;99.90
12254;DHT22;6189;52.526;13.390;2022-10-15T03:47:54;14.20;99.90
12254;DHT22;6189;52.526;13.390;2022-10-15T03:50:40;14.20;99.90
12254;DHT22;6189;52.526;13.390;2022-10-15T03:53:25;14.20;99.90
12254;DHT22;6189;52.526;13.390;2022-10-15T03:56:11;14.20;99.90
12254;DHT22;6189;52.526;13.390;2022-10-15T03:58:56;14.20;99.90
12254;DHT22;6189;52.526;13.390;2022-10-15T04:01:43;14.20;99.90
12254;DHT22;6189;52.526;13.390;2022-10-15T04:04:29;14.20;99.90
12254;DHT22;6189;52.526;13.390;2022-10-15T04:07:14;14.20;99.90
12254;DHT22;6189;52.526;13.390;2022-10-15T04:09:59;14.20;99.90
12254;DHT22;6189;52.526;13.390;2022-10-15T04:12:45;14.20;99.90
12254;DHT22;6189;52.526;13.390;2022-10-15T04:15:30;14.20;99.90
12254;DHT22;6189;52.526;13.390;2022-10-15T04:18:17;14.20;99.90
12254;DHT22;6189;52.526;13.390;2022-10-15T04:21:04;14.20;99.90
12254;DHT22;6189;52.526;13.390;2022-10-15T04:23:49;14.20;99.90
12254;DHT22;6189;52.526;13.390;2022-10-15T04:26:34;14.20;99.90
12254;DHT22;6189;52.526;13.390;2022-10-15T04:29:20;14.20;99.90
12254;DHT22;6189;52.526;13.390;2022-10-15T04:32:05;14.20;99.90
12254;DHT22;6189;52.526;13.390;2022-10-15T04:34:52;14.20;99.90
12254;DHT22;6189;52.526;13.390;2022-10-15T04:37:38;14.20;99.90
12254;DHT22;6189;52.526;13.390;2022-10-15T04:40:23;14.20;99.90
12254;DHT22;6189;52.526;13.390;2022-10-15T04:43:08;14.20;99.90
12254;DHT22;6189;52.526;13.390;2022-10-15T04:45:55;14.30;99.90
12254;DHT22;6189;52.526;13.390;2022-10-15T04:48:41;14.20;99.90
12254;DHT22;6189;52.526;13.390;2022-10-15T04:51:27;14.20;99.90
12254;DHT22;6189;52.526;13.390;2022-10-15T04:54:13;14.20;99.90
12254;DHT22;6189;52.526;13.390;2022-10-15T04:56:59;14.20;99.90
12254;DHT22;6189;52.526;13.390;2022-10-15T04:59:44;14.20;99.90
12254;DHT22;6189;52.526;13.390;2022-10-15T05:02:30;14.20;99.90
12254;DHT22;6189;52.526;13.390;2022-10-15T05:05:16;14.20;99.90
12254;DHT22;6189;52.526;13.390;2022-10-15T05:08:03;14.20;99.90
12254;DHT22;6189;52.526;13.390;2022-10-15T05:10:49;14.20;99.90
12254;DHT22;6189;52.526;13.390;2022-10-15T05:13:35;14.20;99.90
12254;DHT22;6189;52.526;13.390;2022-10-15T05:16:23;14.20;99.90
12254;DHT22;6189;52.526;13.390;2022-10-15T05:19:10;14.30;99.90
12254;DHT22;6189;52.526;13.390;2022-10-15T05:21:55;14.30;99.90
12254;DHT22;6189;52.526;13.390;2022-10-15T05:24:42;14.20;99.90
12254;DHT22;6189;52.526;13.390;2022-10-15T05:27:28;14.20;99.90
12254;DHT22;6189;52.526;13.390;2022-10-15T05:30:13;14.30;99.90
12254;DHT22;6189;52.526;13.390;2022-10-15T05:32:59;14.30;99.90
12254;DHT22;6189;52.526;13.390;2022-10-15T05:35:44;14.30;99.90
12254;DHT22;6189;52.526;13.390;2022-10-15T05:38:30;14.20;99.90
12254;DHT22;6189;52.526;13.390;2022-10-15T05:41:17;14.20;99.90
12254;DHT22;6189;52.526;13.390;2022-10-15T05:44:02;14.30;99.90
12254;DHT22;6189;52.526;13.390;2022-10-15T05:46:48;14.20;99.90
12254;DHT22;6189;52.526;13.390;2022-10-15T05:49:33;14.20;99.90
12254;DHT22;6189;52.526;13.390;2022-10-15T05:52:18;14.30;99.90
12254;DHT22;6189;52.526;13.390;2022-10-15T05:55:04;14.30;99.90
12254;DHT22;6189;52.526;13.390;2022-10-15T05:57:51;14.30;99.90
12254;DHT22;6189;52.526;13.390;2022-10-15T06:00:36;14.30;99.90
12254;DHT22;6189;52.526;13.390;2022-10-15T06:03:23;14.30;99.90
12254;DHT22;6189;52.526;13.390;2022-10-15T06:06:17;14.30;99.90
12254;DHT22;6189;52.526;13.390;2022-10-15T06:09:03;14.30;99.90
12254;DHT22;6189;52.526;13.390;2022-10-15T06:11:48;14.30;99.90
12254;DHT22;6189;52.526;13.390;2022-10-15T06:14:35;14.30;99.90
12254;DHT22;6189;52.526;13.390;2022-10-15T06:17:21;14.30;99.90
12254;DHT22;6189;52.526;13.390;2022-10-15T06:20:07;14.40;99.90
12254;DHT22;6189;52.526;13.390;2022-10-15T06:22:56;14.40;99.90
12254;DHT22;6189;52.526;13.390;2022-10-15T06:25:41;14.30;99.90
12254;DHT22;6189;52.526;13.390;2022-10-15T06:28:26;14.40;99.90
12254;DHT22;6189;52.526;13.390;2022-10-15T06:31:13;14.40;99.90
12254;DHT22;6189;52.526;13.390;2022-10-15T06:33:58;14.40;99.90
12254;DHT22;6189;52.526;13.390;2022-10-15T06:36:44;14.40;99.90
12254;DHT22;6189;52.526;13.390;2022-10-15T06:39:29;14.40;99.90
12254;DHT22;6189;52.526;13.390;2022-10-15T06:42:15;14.40;99.90
12254;DHT22;6189;52.526;13.390;2022-10-15T06:45:00;14.40;99.90
12254;DHT22;6189;52.526;13.390;2022-10-15T06:47:48;14.50;99.90
12254;DHT22;6189;52.526;13.390;2022-10-15T06:50:41;14.50;99.90
12254;DHT22;6189;52.526;13.390;2022-10-15T06:53:27;14.50;99.90
12254;DHT22;6189;52.526;13.390;2022-10-15T06:56:13;14.50;99.90
12254;DHT22;6189;52.526;13.390;2022-10-15T06:58:58;14.60;99.90
12254;DHT22;6189;52.526;13.390;2022-10-15T07:01:44;14.60;99.90
12254;DHT22;6189;52.526;13.390;2022-10-15T07:04:30;14.60;99.90
12254;DHT22;6189;52.526;13.390;2022-10-15T07:07:16;14.70;99.90
12254;DHT22;6189;52.526;13.390;2022-10-15T07:10:01;14.70;99.90
12254;DHT22;6189;52.526;13.390;2022-10-15T07:12:47;14.70;99.90
12254;DHT22;6189;52.526;13.390;2022-10-15T07:15:32;14.70;99.90
12254;DHT22;6189;52.526;13.390;2022-10-15T07:18:18;14.80;99.90
12254;DHT22;6189;52.526;13.390;2022-10-15T07:21:06;14.80;99.90
12254;DHT22;6189;52.526;13.390;2022-10-15T07:23:52;14.80;99.90
12254;DHT22;6189;52.526;13.390;2022-10-15T07:26:37;14.80;99.90
12254;DHT22;6189;52.526;13.390;2022-10-15T07:29:22;14.80;99.90
12254;DHT22;6189;52.526;13.390;2022-10-15T07:32:08;14.80;99.90
12254;DHT22;6189;52.526;13.390;2022-10-15T07:34:53;14.90;99.90
12254;DHT22;6189;52.526;13.390;2022-10-15T07:37:40;14.90;99.90
12254;DHT22;6189;52.526;13.390;2022-10-15T07:40:25;14.90;99.90
12254;DHT22;6189;52.526;13.390;2022-10-15T07:43:11;15.00;99.90
12254;DHT22;6189;52.526;13.390;2022-10-15T07:45:56;15.10;99.90
12254;DHT22;6189;52.526;13.390;2022-10-15T07:48:42;15.00;99.90
12254;DHT22;6189;52.526;13.390;2022-10-15T07:51:27;15.10;99.90
12254;DHT22;6189;52.526;13.390;2022-10-15T07:54:14;15.20;99.90
12254;DHT22;6189;52.526;13.390;2022-10-15T07:56:59;15.20;99.90
12254;DHT22;6189;52.526;13.390;2022-10-15T07:59:45;15.20;99.90
12254;DHT22;6189;52.526;13.390;2022-10-15T08:02:30;15.30;99.90
12254;DHT22;6189;52.526;13.390;2022-10-15T08:05:16;15.30;99.90
12254;DHT22;6189;52.526;13.390;2022-10-15T08:08:01;15.40;99.90
12254;DHT22;6189;52.526;13.390;2022-10-15T08:10:48;15.50;99.90
12254;DHT22;6189;52.526;13.390;2022-10-15T08:13:34;15.50;99.90
12254;DHT22;6189;52.526;13.390;2022-10-15T08:16:19;15.60;99.90
12254;DHT22;6189;52.526;13.390;2022-10-15T08:19:05;15.70;99.90
12254;DHT22;6189;52.526;13.390;2022-10-15T08:21:50;15.70;99.90
12254;DHT22;6189;52.526;13.390;2022-10-15T08:24:35;15.80;99.90
12254;DHT22;6189;52.526;13.390;2022-10-15T08:27:22;15.90;99.90
12254;DHT22;6189;52.526;13.390;2022-10-15T08:30:08;16.00;99.90
12254;DHT22;6189;52.526;13.390;2022-10-15T08:32:54;16.00;99.90
12254;DHT22;6189;52.526;13.390;2022-10-15T08:35:40;16.10;99.90
12254;DHT22;6189;52.526;13.390;2022-10-15T08:38:26;16.10;99.90
12254;DHT22;6189;52.526;13.390;2022-10-15T08:41:19;16.10;99.90
12254;DHT22;6189;52.526;13.390;2022-10-15T08:44:17;16.20;99.90
12254;DHT22;6189;52.526;13.390;2022-10-15T08:47:07;16.20;99.90
12254;DHT22;6189;52.526;13.390;2022-10-15T08:49:56;16.30;99.90
12254;DHT22;6189;52.526;13.390;2022-10-15T08:52:44;16.30;99.90
12254;DHT22;6189;52.526;13.390;2022-10-15T08:55:34;16.40;99.90
12254;DHT22;6189;52.526;13.390;2022-10-15T08:58:26;16.40;99.90
12254;DHT22;6189;52.526;13.390;2022-10-15T09:01:20;16.40;99.90
12254;DHT22;6189;52.526;13.390;2022-10-15T09:04:16;16.40;99.90
12254;DHT22;6189;52.526;13.390;2022-10-15T09:07:10;16.50;99.90
12254;DHT22;6189;52.526;13.390;2022-10-15T09:10:05;16.50;99.90
12254;DHT22;6189;52.526;13.390;2022-10-15T09:12:58;16.50;99.90
12254;DHT22;6189;52.526;13.390;2022-10-15T09:15:49;16.60;99.90
12254;DHT22;6189;52.526;13.390;2022-10-15T09:18:37;16.60;99.90
12254;DHT22;6189;52.526;13.390;2022-10-15T09:21:26;16.70;99.90
12254;DHT22;6189;52.526;13.390;2022-10-15T09:24:14;16.70;99.90
12254;DHT22;6189;52.526;13.390;2022-10-15T09:27:05;16.70;99.90
12254;DHT22;6189;52.526;13.390;2022-10-15T09:29:59;16.80;99.90
12254;DHT22;6189;52.526;13.390;2022-10-15T09:32:50;16.90;99.90
12254;DHT22;6189;52.526;13.390;2022-10-15T09:35:42;16.90;99.90
12254;DHT22;6189;52.526;13.390;2022-10-15T09:38:35;16.90;99.90
12254;DHT22;6189;52.526;13.390;2022-10-15T09:41:31;16.90;99.90
12254;DHT22;6189;52.526;13.390;2022-10-15T09:44:21;17.00;99.90
12254;DHT22;6189;52.526;13.390;2022-10-15T09:47:22;17.00;99.90
12254;DHT22;6189;52.526;13.390;2022-10-15T09:50:09;17.10;99.90
12254;DHT22;6189;52.526;13.390;2022-10-15T09:53:04;17.10;99.90
12254;DHT22;6189;52.526;13.390;2022-10-15T09:56:01;17.30;99.90
12254;DHT22;6189;52.526;13.390;2022-10-15T09:58:52;17.40;99.90
12254;DHT22;6189;52.526;13.390;2022-10-15T10:01:38;17.50;99.90
12254;DHT22;6189;52.526;13.390;2022-10-15T10:04:27;17.60;99.90
12254;DHT22;6189;52.526;13.390;2022-10-15T10:07:28;17.60;99.90
12254;DHT22;6189;52.526;13.390;2022-10-15T10:10:25;17.70;99.90
12254;DHT22;6189;52.526;13.390;2022-10-15T10:13:22;17.70;99.90
12254;DHT22;6189;52.526;13.390;2022-10-15T10:16:10;17.70;99.90
12254;DHT22;6189;52.526;13.390;2022-10-15T10:19:05;17.70;99.90
12254;DHT22;6189;52.526;13.390;2022-10-15T10:22:05;17.70;99.90
12254;DHT22;6189;52.526;13.390;2022-10-15T10:24:51;17.70;99.90
12254;DHT22;6189;52.526;13.390;2022-10-15T10:27:44;17.70;99.90
12254;DHT22;6189;52.526;13.390;2022-10-15T10:30:32;17.70;99.90
12254;DHT22;6189;52.526;13.390;2022-10-15T10:33:24;17.70;99.90
12254;DHT22;6189;52.526;13.390;2022-10-15T10:36:19;17.70;99.90
12254;DHT22;6189;52.526;13.390;2022-10-15T10:39:16;17.80;99.90
12254;DHT22;6189;52.526;13.390;2022-10-15T10:42:06;17.80;99.90
12254;DHT22;6189;52.526;13.390;2022-10-15T10:44:53;17.80;99.90
12254;DHT22;6189;52.526;13.390;2022-10-15T10:47:38;17.80;99.90
12254;DHT22;6189;52.526;13.390;2022-10-15T10:50:30;17.90;99.90
12254;DHT22;6189;52.526;13.390;2022-10-15T10:53:21;17.90;99.90
12254;DHT22;6189;52.526;13.390;2022-10-15T10:56:07;17.90;99.90
12254;DHT22;6189;52.526;13.390;2022-10-15T10:58:59;17.90;99.90
12254;DHT22;6189;52.526;13.390;2022-10-15T11:01:47;17.90;99.90
12254;DHT22;6189;52.526;13.390;2022-10-15T11:04:34;17.90;99.90
12254;DHT22;6189;52.526;13.390;2022-10-15T11:07:25;18.00;99.90
12254;DHT22;6189;52.526;13.390;2022-10-15T11:10:19;18.10;99.90
12254;DHT22;6189;52.526;13.390;2022-10-15T11:13:23;18.10;99.90
12254;DHT22;6189;52.526;13.390;2022-10-15T11:16:13;18.20;99.90
12254;DHT22;6189;52.526;13.390;2022-10-15T11:19:17;18.20;99.90
12254;DHT22;6189;52.526;13.390;2022-10-15T11:22:21;18.20;99.90
12254;DHT22;6189;52.526;13.390;2022-10-15T11:25:20;18.20;99.90
12254;DHT22;6189;52.526;13.390;2022-10-15T11:28:17;18.20;99.90
12254;DHT22;6189;52.526;13.390;2022-10-15T11:31:09;18.30;99.90
12254;DHT22;6189;52.526;13.390;2022-10-15T11:34:14;18.20;99.90
12254;DHT22;6189;52.526;13.390;2022-10-15T11:37:13;18.20;99.90
12254;DHT22;6189;52.526;13.390;2022-10-15T11:40:12;18.20;99.90
12254;DHT22;6189;52.526;13.390;2022-10-15T11:43:01;18.20;99.90
12254;DHT22;6189;52.526;13.390;2022-10-15T11:45:57;18.20;99.90
12254;DHT22;6189;52.526;13.390;2022-10-15T11:48:56;18.30;99.90
12254;DHT22;6189;52.526;13.390;2022-10-15T11:52:00;18.40;99.90
12254;DHT22;6189;52.526;13.390;2022-10-15T11:54:59;18.50;99.90
12254;DHT22;6189;52.526;13.390;2022-10-15T11:57:49;18.70;99.90
12254;DHT22;6189;52.526;13.390;2022-10-15T12:00:38;18.70;99.90
12254;DHT22;6189;52.526;13.390;2022-10-15T12:03:28;18.80;99.90
12254;DHT22;6189;52.526;13.390;2022-10-15T12:06:17;18.70;99.90
12254;DHT22;6189;52.526;13.390;2022-10-15T12:09:07;18.70;99.90
12254;DHT22;6189;52.526;13.390;2022-10-15T12:12:02;18.70;99.90
12254;DHT22;6189;52.526;13.390;2022-10-15T12:14:52;18.60;99.90
12254;DHT22;6189;52.526;13.390;2022-10-15T12:17:49;18.60;99.90
12254;DHT22;6189;52.526;13.390;2022-10-15T12:20:36;18.60;99.90
12254;DHT22;6189;52.526;13.390;2022-10-15T12:23:26;18.60;99.90
12254;DHT22;6189;52.526;13.390;2022-10-15T12:26:30;18.60;99.90
12254;DHT22;6189;52.526;13.390;2022-10-15T12:29:20;18.60;99.90
12254;DHT22;6189;52.526;13.390;2022-10-15T12:32:20;18.70;99.90
12254;DHT22;6189;52.526;13.390;2022-10-15T12:35:19;18.60;99.90
12254;DHT22;6189;52.526;13.390;2022-10-15T12:38:18;18.60;99.90
12254;DHT22;6189;52.526;13.390;2022-10-15T12:41:07;18.60;99.90
12254;DHT22;6189;52.526;13.390;2022-10-15T12:44:05;18.60;99.90
12254;DHT22;6189;52.526;13.390;2022-10-15T12:46:51;18.60;99.90
12254;DHT22;6189;52.526;13.390;2022-10-15T12:49:59;18.60;99.90
12254;DHT22;6189;52.526;13.390;2022-10-15T12:52:58;18.50;99.90
12254;DHT22;6189;52.526;13.390;2022-10-15T12:55:43;18.50;99.90
12254;DHT22;6189;52.526;13.390;2022-10-15T12:58:33;18.60;99.90
12254;DHT22;6189;52.526;13.390;2022-10-15T13:01:49;18.60;99.90
12254;DHT22;6189;52.526;13.390;2022-10-15T13:04:37;18.60;99.90
12254;DHT22;6189;52.526;13.390;2022-10-15T13:07:23;18.60;99.90
12254;DHT22;6189;52.526;13.390;2022-10-15T13:10:18;18.60;99.90
12254;DHT22;6189;52.526;13.390;2022-10-15T13:13:06;18.60;99.90
12254;DHT22;6189;52.526;13.390;2022-10-15T13:15:58;18.60;99.90
12254;DHT22;6189;52.526;13.390;2022-10-15T13:18:49;18.60;99.90
12254;DHT22;6189;52.526;13.390;2022-10-15T13:21:50;18.60;99.90
12254;DHT22;6189;52.526;13.390;2022-10-15T13:24:39;18.60;99.90
12254;DHT22;6189;52.526;13.390;2022-10-15T13:27:29;18.60;99.90
12254;DHT22;6189;52.526;13.390;2022-10-15T13:30:16;18.60;99.90
12254;DHT22;6189;52.526;13.390;2022-10-15T13:33:02;18.60;99.90
12254;DHT22;6189;52.526;13.390;2022-10-15T13:35:49;18.60;99.90
12254;DHT22;6189;52.526;13.390;2022-10-15T13:38:37;18.50;99.90
12254;DHT22;6189;52.526;13.390;2022-10-15T13:41:25;18.50;99.90
12254;DHT22;6189;52.526;13.390;2022-10-15T13:44:19;18.50;99.90
12254;DHT22;6189;52.526;13.390;2022-10-15T13:47:22;18.50;99.90
12254;DHT22;6189;52.526;13.390;2022-10-15T13:50:26;18.40;99.90
12254;DHT22;6189;52.526;13.390;2022-10-15T13:53:20;18.40;99.90
12254;DHT22;6189;52.526;13.390;2022-10-15T13:56:19;18.40;99.90
12254;DHT22;6189;52.526;13.390;2022-10-15T13:59:15;18.40;99.90
12254;DHT22;6189;52.526;13.390;2022-10-15T14:02:01;18.40;99.90
12254;DHT22;6189;52.526;13.390;2022-10-15T14:04:47;18.40;99.90
12254;DHT22;6189;52.526;13.390;2022-10-15T14:07:32;18.30;99.90
12254;DHT22;6189;52.526;13.390;2022-10-15T14:10:19;18.40;99.90
12254;DHT22;6189;52.526;13.390;2022-10-15T14:13:05;18.40;99.90
12254;DHT22;6189;52.526;13.390;2022-10-15T14:16:00;18.40;99.90
12254;DHT22;6189;52.526;13.390;2022-10-15T14:18:48;18.40;99.90
12254;DHT22;6189;52.526;13.390;2022-10-15T14:21:35;18.30;99.90
12254;DHT22;6189;52.526;13.390;2022-10-15T14:24:26;18.30;99.90
12254;DHT22;6189;52.526;13.390;2022-10-15T14:27:15;18.30;99.90
12254;DHT22;6189;52.526;13.390;2022-10-15T14:30:02;18.20;99.90
12254;DHT22;6189;52.526;13.390;2022-10-15T14:32:58;18.20;99.90
12254;DHT22;6189;52.526;13.390;2022-10-15T14:35:43;18.20;99.90
12254;DHT22;6189;52.526;13.390;2022-10-15T14:38:28;18.20;99.90
12254;DHT22;6189;52.526;13.390;2022-10-15T14:41:26;18.20;99.90
12254;DHT22;6189;52.526;13.390;2022-10-15T14:44:17;18.20;99.90
12254;DHT22;6189;52.526;13.390;2022-10-15T14:47:03;18.20;99.90
12254;DHT22;6189;52.526;13.390;2022-10-15T14:49:51;18.30;99.90
12254;DHT22;6189;52.526;13.390;2022-10-15T14:52:43;18.20;99.90
12254;DHT22;6189;52.526;13.390;2022-10-15T14:55:32;18.20;99.90
12254;DHT22;6189;52.526;13.390;2022-10-15T14:58:23;18.20;99.90
12254;DHT22;6189;52.526;13.390;2022-10-15T15:01:14;18.20;99.90
12254;DHT22;6189;52.526;13.390;2022-10-15T15:04:00;18.10;99.90
12254;DHT22;6189;52.526;13.390;2022-10-15T15:06:46;18.10;99.90
12254;DHT22;6189;52.526;13.390;2022-10-15T15:09:32;18.10;99.90
12254;DHT22;6189;52.526;13.390;2022-10-15T15:12:23;18.10;99.90
12254;DHT22;6189;52.526;13.390;2022-10-15T15:15:12;18.10;99.90
12254;DHT22;6189;52.526;13.390;2022-10-15T15:17:59;18.00;99.90
12254;DHT22;6189;52.526;13.390;2022-10-15T15:20:46;18.00;99.90
12254;DHT22;6189;52.526;13.390;2022-10-15T15:23:33;18.00;99.90
12254;DHT22;6189;52.526;13.390;2022-10-15T15:26:19;18.00;99.90
12254;DHT22;6189;52.526;13.390;2022-10-15T15:29:10;18.00;99.90
12254;DHT22;6189;52.526;13.390;2022-10-15T15:31:55;18.00;99.90
12254;DHT22;6189;52.526;13.390;2022-10-15T15:34:42;18.00;99.90
12254;DHT22;6189;52.526;13.390;2022-10-15T15:37:28;18.00;99.90
12254;DHT22;6189;52.526;13.390;2022-10-15T15:40:14;17.90;99.90
12254;DHT22;6189;52.526;13.390;2022-10-15T15:43:00;17.90;99.90
12254;DHT22;6189;52.526;13.390;2022-10-15T15:45:46;17.90;99.90
12254;DHT22;6189;52.526;13.390;2022-10-15T15:48:31;17.90;99.90
12254;DHT22;6189;52.526;13.390;2022-10-15T15:51:22;17.80;99.90
12254;DHT22;6189;52.526;13.390;2022-10-15T15:54:08;17.90;99.90
12254;DHT22;6189;52.526;13.390;2022-10-15T15:56:54;17.80;99.90
12254;DHT22;6189;52.526;13.390;2022-10-15T15:59:39;17.80;99.90
12254;DHT22;6189;52.526;13.390;2022-10-15T16:02:24;17.80;99.90
12254;DHT22;6189;52.526;13.390;2022-10-15T16:05:13;17.80;99.90
12254;DHT22;6189;52.526;13.390;2022-10-15T16:08:00;17.80;99.90
12254;DHT22;6189;52.526;13.390;2022-10-15T16:10:46;17.80;99.90
12254;DHT22;6189;52.526;13.390;2022-10-15T16:13:31;17.70;99.90
12254;DHT22;6189;52.526;13.390;2022-10-15T16:16:17;17.70;99.90
12254;DHT22;6189;52.526;13.390;2022-10-15T16:19:03;17.70;99.90
12254;DHT22;6189;52.526;13.390;2022-10-15T16:21:48;17.70;99.90
12254;DHT22;6189;52.526;13.390;2022-10-15T16:24:35;17.70;99.90
12254;DHT22;6189;52.526;13.390;2022-10-15T16:27:21;17.60;99.90
12254;DHT22;6189;52.526;13.390;2022-10-15T16:30:08;17.60;99.90
12254;DHT22;6189;52.526;13.390;2022-10-15T16:32:53;17.60;99.90
12254;DHT22;6189;52.526;13.390;2022-10-15T16:35:39;17.70;99.90
12254;DHT22;6189;52.526;13.390;2022-10-15T16:38:24;17.60;99.90
12254;DHT22;6189;52.526;13.390;2022-10-15T16:41:12;17.60;99.90
12254;DHT22;6189;52.526;13.390;2022-10-15T16:43:58;17.60;99.90
12254;DHT22;6189;52.526;13.390;2022-10-15T16:46:44;17.60;99.90
12254;DHT22;6189;52.526;13.390;2022-10-15T16:49:29;17.60;99.90
12254;DHT22;6189;52.526;13.390;2022-10-15T16:52:14;17.60;99.90
12254;DHT22;6189;52.526;13.390;2022-10-15T16:55:00;17.50;99.90
12254;DHT22;6189;52.526;13.390;2022-10-15T16:57:47;17.50;99.90
12254;DHT22;6189;52.526;13.390;2022-10-15T17:00:32;17.40;99.90
12254;DHT22;6189;52.526;13.390;2022-10-15T17:03:17;17.50;99.90
12254;DHT22;6189;52.526;13.390;2022-10-15T17:06:05;17.40;99.90
12254;DHT22;6189;52.526;13.390;2022-10-15T17:08:52;17.40;99.90
12254;DHT22;6189;52.526;13.390;2022-10-15T17:11:40;17.40;99.90
12254;DHT22;6189;52.526;13.390;2022-10-15T17:14:27;17.40;99.90
12254;DHT22;6189;52.526;13.390;2022-10-15T17:17:13;17.40;99.90
12254;DHT22;6189;52.526;13.390;2022-10-15T17:19:58;17.40;99.90
12254;DHT22;6189;52.526;13.390;2022-10-15T17:22:44;17.40;99.90
12254;DHT22;6189;52.526;13.390;2022-10-15T17:25:29;17.40;99.90
12254;DHT22;6189;52.526;13.390;2022-10-15T17:28:15;17.30;99.90
12254;DHT22;6189;52.526;13.390;2022-10-15T17:31:08;17.40;99.90
12254;DHT22;6189;52.526;13.390;2022-10-15T17:33:56;17.50;99.90
12254;DHT22;6189;52.526;13.390;2022-10-15T17:36:43;17.40;99.90
12254;DHT22;6189;52.526;13.390;2022-10-15T17:39:30;17.40;99.90
12254;DHT22;6189;52.526;13.390;2022-10-15T17:42:16;17.40;99.90
12254;DHT22;6189;52.526;13.390;2022-10-15T17:45:01;17.30;99.90